メインページ
METAR-TAF:

METAR-TAF

空港 :

マル・デル・プラタ, アルゼンチン

緯度: 37-56S, 経度: 057-35W, 海抜: 18m

現時点の気象観測

当レポートは1時間1分前の05:00(UTC)に作成
無風
気温 16°C
湿度 94%
気圧 1021 hPa
視程: 8000m
高度2500ftの雲は散在している

METAR: SAZM 250500Z 00000KT 8000 SCT025 16/15 Q1021

時間: 03:01 (06:01 UTC)

予報

当レポートは1時間1分前の05:00(UTC)に作成
予報は25日の 06時(UTC)から 26日の 06時(UTC)まで有効
の風 10kt
視程10km以上
1,500メートル以下は雲なし、積乱雲なし
25日の 08時(UTC)から 25日の 10時(UTC)まで徐々に
北/北西の風 5kt
視程: 5000m
高度1000ftの千切れ雲あり
25日の 13時(UTC)から 25日の 15時(UTC)まで徐々に
東/北東の風 5kt
視程10km以上
高度3000ftの雲は散在している

TAF: SAZM 250500Z 2506/2606 35010KT CAVOK TX23/2519Z TN19/2510Z BECMG 2508/2510 34005KT 5000 BR BKN010 BECMG 2513/2515 07005KT 9999 SCT030

4,000以上の空港の気象観測と天気予報(METAR報とTAF報)

利用可能な観測所は地図上に黄色い丸と赤い丸で示す。

丸の上にカーソルを重ねると観測所名を参照できる。

次にクリックすると気象観測と天気予報を参照できる。

マップの切り替え:黒色「×」印の緑ボタンをクリックして拡大、「-」印の緑ボタンをクリックして縮小、緑色の三角印をクリックして隣りの地図に切り替え


METAR-TAF: